sensor_id;sensor_type;location;lat;lon;timestamp;P1;durP1;ratioP1;P2;durP2;ratioP2
19251;SDS011;9760;50.944;5.304;2023-09-18T00:02:01;8.57;;;5.57;;
19251;SDS011;9760;50.944;5.304;2023-09-18T00:04:27;11.13;;;6.13;;
19251;SDS011;9760;50.944;5.304;2023-09-18T00:06:52;17.17;;;6.80;;
19251;SDS011;9760;50.944;5.304;2023-09-18T00:09:18;10.83;;;6.00;;
19251;SDS011;9760;50.944;5.304;2023-09-18T00:11:44;8.63;;;5.77;;
19251;SDS011;9760;50.944;5.304;2023-09-18T00:14:09;14.33;;;6.20;;
19251;SDS011;9760;50.944;5.304;2023-09-18T00:16:35;18.33;;;5.67;;
19251;SDS011;9760;50.944;5.304;2023-09-18T00:19:01;12.90;;;5.47;;
19251;SDS011;9760;50.944;5.304;2023-09-18T00:21:27;12.57;;;6.00;;
19251;SDS011;9760;50.944;5.304;2023-09-18T00:23:55;14.80;;;6.00;;
19251;SDS011;9760;50.944;5.304;2023-09-18T00:26:23;13.33;;;5.93;;
19251;SDS011;9760;50.944;5.304;2023-09-18T00:28:49;16.93;;;6.40;;
19251;SDS011;9760;50.944;5.304;2023-09-18T00:31:15;14.70;;;5.73;;
19251;SDS011;9760;50.944;5.304;2023-09-18T00:33:41;11.73;;;5.37;;
19251;SDS011;9760;50.944;5.304;2023-09-18T00:36:07;11.73;;;5.73;;
19251;SDS011;9760;50.944;5.304;2023-09-18T00:38:32;21.47;;;5.80;;
19251;SDS011;9760;50.944;5.304;2023-09-18T00:40:58;12.07;;;6.07;;
19251;SDS011;9760;50.944;5.304;2023-09-18T00:43:23;10.87;;;6.23;;
19251;SDS011;9760;50.944;5.304;2023-09-18T00:45:49;17.60;;;6.20;;
19251;SDS011;9760;50.944;5.304;2023-09-18T00:48:15;20.43;;;6.33;;
19251;SDS011;9760;50.944;5.304;2023-09-18T00:50:43;13.47;;;5.73;;
19251;SDS011;9760;50.944;5.304;2023-09-18T00:53:09;13.27;;;5.37;;
19251;SDS011;9760;50.944;5.304;2023-09-18T00:55:38;12.83;;;5.30;;
19251;SDS011;9760;50.944;5.304;2023-09-18T00:58:04;15.07;;;5.53;;
19251;SDS011;9760;50.944;5.304;2023-09-18T01:00:32;11.10;;;5.60;;
19251;SDS011;9760;50.944;5.304;2023-09-18T01:02:58;13.13;;;5.63;;
19251;SDS011;9760;50.944;5.304;2023-09-18T01:05:24;12.23;;;5.73;;
19251;SDS011;9760;50.944;5.304;2023-09-18T01:07:50;14.07;;;5.50;;
19251;SDS011;9760;50.944;5.304;2023-09-18T01:10:16;13.73;;;5.60;;
19251;SDS011;9760;50.944;5.304;2023-09-18T01:12:52;14.83;;;6.20;;
19251;SDS011;9760;50.944;5.304;2023-09-18T01:15:23;10.30;;;5.80;;
19251;SDS011;9760;50.944;5.304;2023-09-18T01:17:54;15.07;;;6.10;;
19251;SDS011;9760;50.944;5.304;2023-09-18T01:20:20;14.30;;;5.70;;
19251;SDS011;9760;50.944;5.304;2023-09-18T01:22:46;14.67;;;6.17;;
19251;SDS011;9760;50.944;5.304;2023-09-18T01:25:14;17.23;;;5.43;;
19251;SDS011;9760;50.944;5.304;2023-09-18T01:27:39;15.13;;;5.37;;
19251;SDS011;9760;50.944;5.304;2023-09-18T01:30:05;14.47;;;5.27;;
19251;SDS011;9760;50.944;5.304;2023-09-18T01:32:31;11.37;;;4.80;;
19251;SDS011;9760;50.944;5.304;2023-09-18T01:35:00;15.33;;;5.93;;
19251;SDS011;9760;50.944;5.304;2023-09-18T01:37:29;19.40;;;6.07;;
19251;SDS011;9760;50.944;5.304;2023-09-18T01:39:56;14.93;;;6.00;;
19251;SDS011;9760;50.944;5.304;2023-09-18T01:42:24;10.00;;;4.93;;
19251;SDS011;9760;50.944;5.304;2023-09-18T01:44:51;16.77;;;5.60;;
19251;SDS011;9760;50.944;5.304;2023-09-18T01:47:18;19.20;;;5.43;;
19251;SDS011;9760;50.944;5.304;2023-09-18T01:49:48;19.97;;;5.70;;
19251;SDS011;9760;50.944;5.304;2023-09-18T01:52:14;16.87;;;5.17;;
19251;SDS011;9760;50.944;5.304;2023-09-18T01:54:39;16.90;;;4.70;;
19251;SDS011;9760;50.944;5.304;2023-09-18T01:57:05;16.47;;;4.90;;
19251;SDS011;9760;50.944;5.304;2023-09-18T01:59:32;23.97;;;5.30;;
19251;SDS011;9760;50.944;5.304;2023-09-18T02:01:59;21.33;;;4.93;;
19251;SDS011;9760;50.944;5.304;2023-09-18T02:04:25;22.73;;;5.87;;
19251;SDS011;9760;50.944;5.304;2023-09-18T02:06:52;13.27;;;5.27;;
19251;SDS011;9760;50.944;5.304;2023-09-18T02:09:18;20.53;;;4.50;;
19251;SDS011;9760;50.944;5.304;2023-09-18T02:11:45;19.77;;;4.67;;
19251;SDS011;9760;50.944;5.304;2023-09-18T02:14:12;23.60;;;5.07;;
19251;SDS011;9760;50.944;5.304;2023-09-18T02:16:40;17.63;;;4.73;;
19251;SDS011;9760;50.944;5.304;2023-09-18T02:19:07;17.93;;;4.53;;
19251;SDS011;9760;50.944;5.304;2023-09-18T02:21:36;14.93;;;4.70;;
19251;SDS011;9760;50.944;5.304;2023-09-18T02:24:02;15.57;;;4.60;;
19251;SDS011;9760;50.944;5.304;2023-09-18T02:26:28;13.70;;;4.93;;
19251;SDS011;9760;50.944;5.304;2023-09-18T02:28:54;14.57;;;4.67;;
19251;SDS011;9760;50.944;5.304;2023-09-18T02:31:24;19.67;;;4.83;;
19251;SDS011;9760;50.944;5.304;2023-09-18T02:33:49;13.63;;;5.10;;
19251;SDS011;9760;50.944;5.304;2023-09-18T02:36:15;14.40;;;4.07;;
19251;SDS011;9760;50.944;5.304;2023-09-18T02:38:41;11.53;;;3.90;;
19251;SDS011;9760;50.944;5.304;2023-09-18T02:41:08;16.80;;;3.83;;
19251;SDS011;9760;50.944;5.304;2023-09-18T02:43:34;18.37;;;4.17;;
19251;SDS011;9760;50.944;5.304;2023-09-18T02:46:00;8.47;;;3.60;;
19251;SDS011;9760;50.944;5.304;2023-09-18T02:48:26;14.27;;;4.90;;
19251;SDS011;9760;50.944;5.304;2023-09-18T02:50:51;12.73;;;4.10;;
19251;SDS011;9760;50.944;5.304;2023-09-18T02:53:21;17.63;;;4.50;;
19251;SDS011;9760;50.944;5.304;2023-09-18T02:55:48;13.87;;;3.43;;
19251;SDS011;9760;50.944;5.304;2023-09-18T02:58:15;9.27;;;3.77;;
19251;SDS011;9760;50.944;5.304;2023-09-18T03:00:41;9.50;;;3.00;;
19251;SDS011;9760;50.944;5.304;2023-09-18T03:03:08;9.07;;;2.93;;
19251;SDS011;9760;50.944;5.304;2023-09-18T03:05:35;11.17;;;3.33;;
19251;SDS011;9760;50.944;5.304;2023-09-18T03:08:01;11.67;;;2.70;;
19251;SDS011;9760;50.944;5.304;2023-09-18T03:10:27;6.90;;;2.50;;
19251;SDS011;9760;50.944;5.304;2023-09-18T03:12:53;8.20;;;2.37;;
19251;SDS011;9760;50.944;5.304;2023-09-18T03:15:18;10.03;;;2.63;;
19251;SDS011;9760;50.944;5.304;2023-09-18T03:17:44;6.33;;;2.57;;
19251;SDS011;9760;50.944;5.304;2023-09-18T03:20:10;6.27;;;2.57;;
19251;SDS011;9760;50.944;5.304;2023-09-18T03:22:36;13.53;;;2.77;;
19251;SDS011;9760;50.944;5.304;2023-09-18T03:25:01;6.77;;;2.63;;
19251;SDS011;9760;50.944;5.304;2023-09-18T03:27:28;5.97;;;2.30;;
19251;SDS011;9760;50.944;5.304;2023-09-18T03:29:56;11.40;;;2.93;;
19251;SDS011;9760;50.944;5.304;2023-09-18T03:32:22;10.50;;;2.70;;
19251;SDS011;9760;50.944;5.304;2023-09-18T03:34:50;9.07;;;2.63;;
19251;SDS011;9760;50.944;5.304;2023-09-18T03:37:16;7.87;;;2.50;;
19251;SDS011;9760;50.944;5.304;2023-09-18T03:39:42;8.17;;;2.60;;
19251;SDS011;9760;50.944;5.304;2023-09-18T03:42:08;8.13;;;2.53;;
19251;SDS011;9760;50.944;5.304;2023-09-18T03:44:34;10.23;;;2.40;;
19251;SDS011;9760;50.944;5.304;2023-09-18T03:47:00;6.40;;;2.97;;
19251;SDS011;9760;50.944;5.304;2023-09-18T03:49:27;7.43;;;2.60;;
19251;SDS011;9760;50.944;5.304;2023-09-18T03:51:53;8.87;;;2.57;;
19251;SDS011;9760;50.944;5.304;2023-09-18T03:54:18;8.57;;;2.30;;
19251;SDS011;9760;50.944;5.304;2023-09-18T03:56:44;6.93;;;2.20;;
19251;SDS011;9760;50.944;5.304;2023-09-18T03:59:11;9.67;;;2.47;;
19251;SDS011;9760;50.944;5.304;2023-09-18T04:01:37;9.13;;;2.67;;
19251;SDS011;9760;50.944;5.304;2023-09-18T04:04:03;6.87;;;2.40;;
19251;SDS011;9760;50.944;5.304;2023-09-18T04:06:42;5.17;;;2.50;;
19251;SDS011;9760;50.944;5.304;2023-09-18T04:09:08;14.07;;;2.90;;
19251;SDS011;9760;50.944;5.304;2023-09-18T04:11:34;3.83;;;2.20;;
19251;SDS011;9760;50.944;5.304;2023-09-18T04:14:00;8.10;;;2.70;;
19251;SDS011;9760;50.944;5.304;2023-09-18T04:16:28;15.47;;;4.80;;
19251;SDS011;9760;50.944;5.304;2023-09-18T04:18:56;9.27;;;3.53;;
19251;SDS011;9760;50.944;5.304;2023-09-18T04:21:22;5.07;;;2.30;;
19251;SDS011;9760;50.944;5.304;2023-09-18T04:23:48;9.13;;;2.43;;
19251;SDS011;9760;50.944;5.304;2023-09-18T04:26:20;6.93;;;2.20;;
19251;SDS011;9760;50.944;5.304;2023-09-18T04:28:46;8.63;;;2.50;;
19251;SDS011;9760;50.944;5.304;2023-09-18T04:31:12;8.47;;;2.93;;
19251;SDS011;9760;50.944;5.304;2023-09-18T04:33:38;6.63;;;2.37;;
19251;SDS011;9760;50.944;5.304;2023-09-18T04:36:04;6.03;;;3.60;;
19251;SDS011;9760;50.944;5.304;2023-09-18T04:38:29;10.70;;;2.60;;
19251;SDS011;9760;50.944;5.304;2023-09-18T04:41:01;7.03;;;2.07;;
19251;SDS011;9760;50.944;5.304;2023-09-18T04:43:27;9.17;;;2.13;;
19251;SDS011;9760;50.944;5.304;2023-09-18T04:45:54;8.70;;;2.43;;
19251;SDS011;9760;50.944;5.304;2023-09-18T04:48:20;5.47;;;2.20;;
19251;SDS011;9760;50.944;5.304;2023-09-18T04:50:46;6.27;;;2.33;;
19251;SDS011;9760;50.944;5.304;2023-09-18T04:53:12;6.57;;;2.10;;
19251;SDS011;9760;50.944;5.304;2023-09-18T04:55:39;5.43;;;1.77;;
19251;SDS011;9760;50.944;5.304;2023-09-18T04:58:04;5.23;;;1.73;;
19251;SDS011;9760;50.944;5.304;2023-09-18T05:00:31;5.23;;;2.30;;
19251;SDS011;9760;50.944;5.304;2023-09-18T05:02:58;4.03;;;2.07;;
19251;SDS011;9760;50.944;5.304;2023-09-18T05:05:26;6.30;;;2.03;;
19251;SDS011;9760;50.944;5.304;2023-09-18T05:07:52;3.53;;;1.70;;
19251;SDS011;9760;50.944;5.304;2023-09-18T05:10:18;5.67;;;1.80;;
19251;SDS011;9760;50.944;5.304;2023-09-18T05:12:44;5.13;;;2.13;;
19251;SDS011;9760;50.944;5.304;2023-09-18T05:15:10;4.77;;;1.97;;
19251;SDS011;9760;50.944;5.304;2023-09-18T05:17:41;5.03;;;2.00;;
19251;SDS011;9760;50.944;5.304;2023-09-18T05:20:09;5.27;;;2.20;;
19251;SDS011;9760;50.944;5.304;2023-09-18T05:22:40;6.60;;;2.20;;
19251;SDS011;9760;50.944;5.304;2023-09-18T05:25:07;7.20;;;2.17;;
19251;SDS011;9760;50.944;5.304;2023-09-18T05:27:35;7.23;;;2.10;;
19251;SDS011;9760;50.944;5.304;2023-09-18T05:30:01;4.53;;;1.83;;
19251;SDS011;9760;50.944;5.304;2023-09-18T05:32:26;5.07;;;2.20;;
19251;SDS011;9760;50.944;5.304;2023-09-18T05:34:53;5.77;;;1.80;;
19251;SDS011;9760;50.944;5.304;2023-09-18T05:37:19;11.13;;;2.10;;
19251;SDS011;9760;50.944;5.304;2023-09-18T05:39:44;11.50;;;2.03;;
19251;SDS011;9760;50.944;5.304;2023-09-18T05:42:10;8.87;;;2.10;;
19251;SDS011;9760;50.944;5.304;2023-09-18T05:44:36;4.00;;;1.70;;
19251;SDS011;9760;50.944;5.304;2023-09-18T05:47:04;17.07;;;2.53;;
19251;SDS011;9760;50.944;5.304;2023-09-18T05:49:30;8.53;;;2.03;;
19251;SDS011;9760;50.944;5.304;2023-09-18T05:51:55;4.57;;;1.90;;
19251;SDS011;9760;50.944;5.304;2023-09-18T05:54:21;7.47;;;1.70;;
19251;SDS011;9760;50.944;5.304;2023-09-18T05:56:47;3.53;;;1.60;;
19251;SDS011;9760;50.944;5.304;2023-09-18T05:59:13;3.57;;;1.57;;
19251;SDS011;9760;50.944;5.304;2023-09-18T06:01:41;6.33;;;1.83;;
19251;SDS011;9760;50.944;5.304;2023-09-18T06:04:06;9.30;;;1.77;;
19251;SDS011;9760;50.944;5.304;2023-09-18T06:06:32;5.57;;;2.00;;
19251;SDS011;9760;50.944;5.304;2023-09-18T06:08:57;6.90;;;1.80;;
19251;SDS011;9760;50.944;5.304;2023-09-18T06:11:23;6.00;;;1.60;;
19251;SDS011;9760;50.944;5.304;2023-09-18T06:13:49;4.17;;;1.70;;
19251;SDS011;9760;50.944;5.304;2023-09-18T06:16:15;5.83;;;1.60;;
19251;SDS011;9760;50.944;5.304;2023-09-18T06:18:40;3.40;;;1.43;;
19251;SDS011;9760;50.944;5.304;2023-09-18T06:21:06;4.70;;;1.87;;
19251;SDS011;9760;50.944;5.304;2023-09-18T06:23:32;5.30;;;1.70;;
19251;SDS011;9760;50.944;5.304;2023-09-18T06:25:58;3.97;;;1.50;;
19251;SDS011;9760;50.944;5.304;2023-09-18T06:28:24;3.80;;;1.60;;
19251;SDS011;9760;50.944;5.304;2023-09-18T06:30:50;9.10;;;1.90;;
19251;SDS011;9760;50.944;5.304;2023-09-18T06:33:16;6.83;;;1.53;;
19251;SDS011;9760;50.944;5.304;2023-09-18T06:35:42;5.67;;;1.67;;
19251;SDS011;9760;50.944;5.304;2023-09-18T06:38:07;5.03;;;1.60;;
19251;SDS011;9760;50.944;5.304;2023-09-18T06:40:35;6.80;;;1.40;;
19251;SDS011;9760;50.944;5.304;2023-09-18T06:43:01;5.83;;;2.20;;
19251;SDS011;9760;50.944;5.304;2023-09-18T06:45:27;4.60;;;1.63;;
19251;SDS011;9760;50.944;5.304;2023-09-18T06:47:55;2.40;;;1.40;;
19251;SDS011;9760;50.944;5.304;2023-09-18T06:50:21;6.80;;;1.97;;
19251;SDS011;9760;50.944;5.304;2023-09-18T06:52:46;6.53;;;1.60;;
19251;SDS011;9760;50.944;5.304;2023-09-18T06:55:12;5.57;;;1.93;;
19251;SDS011;9760;50.944;5.304;2023-09-18T06:57:38;4.30;;;1.40;;
19251;SDS011;9760;50.944;5.304;2023-09-18T07:00:06;2.50;;;1.40;;
19251;SDS011;9760;50.944;5.304;2023-09-18T07:02:32;8.57;;;2.03;;
19251;SDS011;9760;50.944;5.304;2023-09-18T07:04:58;6.50;;;2.00;;
19251;SDS011;9760;50.944;5.304;2023-09-18T07:07:23;13.57;;;2.10;;
19251;SDS011;9760;50.944;5.304;2023-09-18T07:09:50;9.30;;;1.73;;
19251;SDS011;9760;50.944;5.304;2023-09-18T07:12:17;8.37;;;1.70;;
19251;SDS011;9760;50.944;5.304;2023-09-18T07:14:45;5.90;;;1.53;;
19251;SDS011;9760;50.944;5.304;2023-09-18T07:17:11;3.53;;;1.67;;
19251;SDS011;9760;50.944;5.304;2023-09-18T07:19:37;5.47;;;1.30;;
19251;SDS011;9760;50.944;5.304;2023-09-18T07:22:03;5.57;;;1.80;;
19251;SDS011;9760;50.944;5.304;2023-09-18T07:24:29;8.40;;;1.53;;
19251;SDS011;9760;50.944;5.304;2023-09-18T07:26:55;4.17;;;1.47;;
19251;SDS011;9760;50.944;5.304;2023-09-18T07:29:23;5.77;;;1.50;;
19251;SDS011;9760;50.944;5.304;2023-09-18T07:31:50;3.87;;;1.47;;
19251;SDS011;9760;50.944;5.304;2023-09-18T07:34:16;6.47;;;1.33;;
19251;SDS011;9760;50.944;5.304;2023-09-18T07:36:42;2.20;;;1.20;;
19251;SDS011;9760;50.944;5.304;2023-09-18T07:39:12;5.70;;;1.47;;
19251;SDS011;9760;50.944;5.304;2023-09-18T07:41:37;6.07;;;1.60;;
19251;SDS011;9760;50.944;5.304;2023-09-18T07:44:04;2.17;;;1.30;;
19251;SDS011;9760;50.944;5.304;2023-09-18T07:46:30;10.27;;;2.07;;
19251;SDS011;9760;50.944;5.304;2023-09-18T07:48:55;6.73;;;1.90;;
19251;SDS011;9760;50.944;5.304;2023-09-18T07:51:21;4.07;;;1.63;;
19251;SDS011;9760;50.944;5.304;2023-09-18T07:53:48;6.90;;;1.70;;
19251;SDS011;9760;50.944;5.304;2023-09-18T07:56:14;5.20;;;1.43;;
19251;SDS011;9760;50.944;5.304;2023-09-18T07:58:39;4.00;;;1.40;;
19251;SDS011;9760;50.944;5.304;2023-09-18T08:01:05;5.03;;;1.30;;
19251;SDS011;9760;50.944;5.304;2023-09-18T08:03:31;3.63;;;1.30;;
19251;SDS011;9760;50.944;5.304;2023-09-18T08:05:57;4.93;;;1.33;;
19251;SDS011;9760;50.944;5.304;2023-09-18T08:08:23;6.37;;;1.80;;
19251;SDS011;9760;50.944;5.304;2023-09-18T08:10:50;5.73;;;1.57;;
19251;SDS011;9760;50.944;5.304;2023-09-18T08:13:16;3.53;;;1.60;;
19251;SDS011;9760;50.944;5.304;2023-09-18T08:15:42;6.33;;;1.90;;
19251;SDS011;9760;50.944;5.304;2023-09-18T08:18:09;9.17;;;1.47;;
19251;SDS011;9760;50.944;5.304;2023-09-18T08:20:35;4.27;;;1.90;;
19251;SDS011;9760;50.944;5.304;2023-09-18T08:23:05;4.47;;;1.63;;
19251;SDS011;9760;50.944;5.304;2023-09-18T08:25:31;3.90;;;1.73;;
19251;SDS011;9760;50.944;5.304;2023-09-18T08:27:57;8.47;;;2.00;;
19251;SDS011;9760;50.944;5.304;2023-09-18T08:30:23;4.80;;;1.93;;
19251;SDS011;9760;50.944;5.304;2023-09-18T08:32:49;5.67;;;2.23;;
19251;SDS011;9760;50.944;5.304;2023-09-18T08:35:15;6.57;;;1.80;;
19251;SDS011;9760;50.944;5.304;2023-09-18T08:37:41;5.00;;;1.87;;
19251;SDS011;9760;50.944;5.304;2023-09-18T08:40:09;8.50;;;1.70;;
19251;SDS011;9760;50.944;5.304;2023-09-18T08:42:38;7.43;;;1.87;;
19251;SDS011;9760;50.944;5.304;2023-09-18T08:45:08;6.47;;;1.57;;
19251;SDS011;9760;50.944;5.304;2023-09-18T08:47:35;4.20;;;1.57;;
19251;SDS011;9760;50.944;5.304;2023-09-18T08:50:05;3.67;;;1.67;;
19251;SDS011;9760;50.944;5.304;2023-09-18T08:52:35;4.47;;;1.73;;
19251;SDS011;9760;50.944;5.304;2023-09-18T08:55:00;6.30;;;1.70;;
19251;SDS011;9760;50.944;5.304;2023-09-18T08:57:27;4.20;;;1.70;;
19251;SDS011;9760;50.944;5.304;2023-09-18T08:59:55;8.30;;;1.63;;
19251;SDS011;9760;50.944;5.304;2023-09-18T09:02:22;5.00;;;1.73;;
19251;SDS011;9760;50.944;5.304;2023-09-18T09:04:47;2.93;;;1.40;;
19251;SDS011;9760;50.944;5.304;2023-09-18T09:07:13;7.77;;;1.80;;
19251;SDS011;9760;50.944;5.304;2023-09-18T09:09:39;8.70;;;1.67;;
19251;SDS011;9760;50.944;5.304;2023-09-18T09:12:06;7.03;;;1.80;;
19251;SDS011;9760;50.944;5.304;2023-09-18T09:14:32;5.47;;;1.87;;
19251;SDS011;9760;50.944;5.304;2023-09-18T09:16:58;6.30;;;2.20;;
19251;SDS011;9760;50.944;5.304;2023-09-18T09:19:31;6.43;;;1.90;;
19251;SDS011;9760;50.944;5.304;2023-09-18T09:22:00;5.13;;;1.80;;
19251;SDS011;9760;50.944;5.304;2023-09-18T09:24:36;3.90;;;1.80;;
19251;SDS011;9760;50.944;5.304;2023-09-18T09:27:08;8.53;;;1.87;;
19251;SDS011;9760;50.944;5.304;2023-09-18T09:29:34;3.67;;;1.80;;
19251;SDS011;9760;50.944;5.304;2023-09-18T09:32:11;6.73;;;2.30;;
19251;SDS011;9760;50.944;5.304;2023-09-18T09:34:44;6.80;;;2.00;;
19251;SDS011;9760;50.944;5.304;2023-09-18T09:37:11;5.03;;;1.70;;
19251;SDS011;9760;50.944;5.304;2023-09-18T09:39:48;5.43;;;2.00;;
19251;SDS011;9760;50.944;5.304;2023-09-18T09:42:15;9.23;;;1.87;;
19251;SDS011;9760;50.944;5.304;2023-09-18T09:45:02;7.33;;;2.73;;
19251;SDS011;9760;50.944;5.304;2023-09-18T09:47:35;4.83;;;2.03;;
19251;SDS011;9760;50.944;5.304;2023-09-18T09:50:11;8.17;;;1.97;;
19251;SDS011;9760;50.944;5.304;2023-09-18T09:52:56;5.53;;;1.87;;
19251;SDS011;9760;50.944;5.304;2023-09-18T09:57:48;5.93;;;1.77;;
19251;SDS011;9760;50.944;5.304;2023-09-18T10:00:15;6.53;;;1.83;;
19251;SDS011;9760;50.944;5.304;2023-09-18T10:02:50;5.53;;;2.10;;
19251;SDS011;9760;50.944;5.304;2023-09-18T10:05:16;5.97;;;2.20;;
19251;SDS011;9760;50.944;5.304;2023-09-18T10:07:44;5.90;;;1.90;;
19251;SDS011;9760;50.944;5.304;2023-09-18T10:10:11;4.73;;;2.00;;
19251;SDS011;9760;50.944;5.304;2023-09-18T10:12:37;7.30;;;2.10;;
19251;SDS011;9760;50.944;5.304;2023-09-18T10:15:04;5.03;;;2.00;;
19251;SDS011;9760;50.944;5.304;2023-09-18T10:17:34;9.33;;;1.97;;
19251;SDS011;9760;50.944;5.304;2023-09-18T10:20:09;7.20;;;2.07;;
19251;SDS011;9760;50.944;5.304;2023-09-18T10:22:48;5.30;;;2.03;;
19251;SDS011;9760;50.944;5.304;2023-09-18T10:27:53;3.60;;;1.77;;
19251;SDS011;9760;50.944;5.304;2023-09-18T10:30:29;4.37;;;1.70;;
19251;SDS011;9760;50.944;5.304;2023-09-18T10:32:57;4.97;;;1.70;;
19251;SDS011;9760;50.944;5.304;2023-09-18T10:35:25;4.10;;;2.00;;
19251;SDS011;9760;50.944;5.304;2023-09-18T10:37:50;6.80;;;1.90;;
19251;SDS011;9760;50.944;5.304;2023-09-18T10:40:20;5.00;;;1.90;;
19251;SDS011;9760;50.944;5.304;2023-09-18T10:42:47;3.37;;;1.70;;
19251;SDS011;9760;50.944;5.304;2023-09-18T10:45:14;5.13;;;1.83;;
19251;SDS011;9760;50.944;5.304;2023-09-18T10:47:44;7.87;;;2.00;;
19251;SDS011;9760;50.944;5.304;2023-09-18T10:50:11;5.10;;;1.93;;
19251;SDS011;9760;50.944;5.304;2023-09-18T10:52:43;6.13;;;1.77;;
19251;SDS011;9760;50.944;5.304;2023-09-18T10:55:12;7.13;;;2.00;;
19251;SDS011;9760;50.944;5.304;2023-09-18T10:57:49;6.50;;;2.07;;
19251;SDS011;9760;50.944;5.304;2023-09-18T11:00:18;5.47;;;2.10;;
19251;SDS011;9760;50.944;5.304;2023-09-18T11:02:49;7.90;;;1.87;;
19251;SDS011;9760;50.944;5.304;2023-09-18T11:05:26;7.20;;;2.00;;
19251;SDS011;9760;50.944;5.304;2023-09-18T11:10:59;4.70;;;1.80;;
19251;SDS011;9760;50.944;5.304;2023-09-18T11:13:30;5.40;;;2.27;;
19251;SDS011;9760;50.944;5.304;2023-09-18T11:16:00;5.13;;;2.00;;
19251;SDS011;9760;50.944;5.304;2023-09-18T11:18:34;6.40;;;2.17;;
19251;SDS011;9760;50.944;5.304;2023-09-18T11:21:06;5.73;;;2.10;;
19251;SDS011;9760;50.944;5.304;2023-09-18T11:23:36;5.50;;;1.73;;
19251;SDS011;9760;50.944;5.304;2023-09-18T11:26:14;5.50;;;1.90;;
19251;SDS011;9760;50.944;5.304;2023-09-18T11:28:40;3.67;;;2.17;;
19251;SDS011;9760;50.944;5.304;2023-09-18T11:31:07;6.60;;;2.10;;
19251;SDS011;9760;50.944;5.304;2023-09-18T11:33:38;8.27;;;2.03;;
19251;SDS011;9760;50.944;5.304;2023-09-18T11:36:08;5.83;;;1.67;;
19251;SDS011;9760;50.944;5.304;2023-09-18T11:38:55;5.73;;;1.40;;
19251;SDS011;9760;50.944;5.304;2023-09-18T11:41:27;10.77;;;1.90;;
19251;SDS011;9760;50.944;5.304;2023-09-18T11:46:38;6.00;;;1.90;;
19251;SDS011;9760;50.944;5.304;2023-09-18T11:49:09;7.50;;;2.30;;
19251;SDS011;9760;50.944;5.304;2023-09-18T11:51:36;3.87;;;1.60;;
19251;SDS011;9760;50.944;5.304;2023-09-18T11:54:02;4.70;;;2.00;;
19251;SDS011;9760;50.944;5.304;2023-09-18T11:56:30;5.23;;;1.63;;
19251;SDS011;9760;50.944;5.304;2023-09-18T11:58:58;4.83;;;1.50;;
19251;SDS011;9760;50.944;5.304;2023-09-18T12:01:24;3.87;;;1.40;;
19251;SDS011;9760;50.944;5.304;2023-09-18T12:03:55;5.43;;;2.23;;
19251;SDS011;9760;50.944;5.304;2023-09-18T12:06:25;7.23;;;1.90;;
19251;SDS011;9760;50.944;5.304;2023-09-18T12:08:54;4.20;;;1.77;;
19251;SDS011;9760;50.944;5.304;2023-09-18T12:11:21;5.60;;;1.73;;
19251;SDS011;9760;50.944;5.304;2023-09-18T12:13:50;3.50;;;1.90;;
19251;SDS011;9760;50.944;5.304;2023-09-18T12:16:16;3.63;;;1.83;;
19251;SDS011;9760;50.944;5.304;2023-09-18T12:18:48;2.70;;;1.83;;
19251;SDS011;9760;50.944;5.304;2023-09-18T12:21:15;8.07;;;1.83;;
19251;SDS011;9760;50.944;5.304;2023-09-18T12:23:42;7.63;;;1.70;;
19251;SDS011;9760;50.944;5.304;2023-09-18T12:26:10;5.37;;;1.50;;
19251;SDS011;9760;50.944;5.304;2023-09-18T12:28:40;4.87;;;1.67;;
19251;SDS011;9760;50.944;5.304;2023-09-18T12:31:14;4.80;;;1.87;;
19251;SDS011;9760;50.944;5.304;2023-09-18T12:33:41;3.60;;;1.77;;
19251;SDS011;9760;50.944;5.304;2023-09-18T12:36:09;4.50;;;1.80;;
19251;SDS011;9760;50.944;5.304;2023-09-18T12:38:35;7.47;;;1.90;;
19251;SDS011;9760;50.944;5.304;2023-09-18T12:41:02;3.57;;;1.63;;
19251;SDS011;9760;50.944;5.304;2023-09-18T12:43:36;5.77;;;1.77;;
19251;SDS011;9760;50.944;5.304;2023-09-18T12:46:09;4.23;;;1.80;;
19251;SDS011;9760;50.944;5.304;2023-09-18T12:48:38;4.67;;;2.10;;
19251;SDS011;9760;50.944;5.304;2023-09-18T12:51:10;6.27;;;2.10;;
19251;SDS011;9760;50.944;5.304;2023-09-18T12:53:36;6.07;;;1.63;;
19251;SDS011;9760;50.944;5.304;2023-09-18T12:56:06;7.97;;;1.70;;
19251;SDS011;9760;50.944;5.304;2023-09-18T12:58:33;3.60;;;1.60;;
19251;SDS011;9760;50.944;5.304;2023-09-18T13:01:03;5.17;;;1.50;;
19251;SDS011;9760;50.944;5.304;2023-09-18T13:03:41;7.43;;;1.60;;
19251;SDS011;9760;50.944;5.304;2023-09-18T13:06:09;6.33;;;1.67;;
19251;SDS011;9760;50.944;5.304;2023-09-18T13:08:46;5.93;;;1.70;;
19251;SDS011;9760;50.944;5.304;2023-09-18T13:11:12;4.93;;;1.60;;
19251;SDS011;9760;50.944;5.304;2023-09-18T13:13:41;3.83;;;1.57;;
19251;SDS011;9760;50.944;5.304;2023-09-18T13:16:08;3.43;;;1.63;;
19251;SDS011;9760;50.944;5.304;2023-09-18T13:18:35;9.87;;;1.67;;
19251;SDS011;9760;50.944;5.304;2023-09-18T13:21:11;6.53;;;1.80;;
19251;SDS011;9760;50.944;5.304;2023-09-18T13:23:39;5.70;;;1.37;;
19251;SDS011;9760;50.944;5.304;2023-09-18T13:26:05;4.30;;;1.50;;
19251;SDS011;9760;50.944;5.304;2023-09-18T13:28:35;2.87;;;1.60;;
19251;SDS011;9760;50.944;5.304;2023-09-18T13:31:05;1.93;;;1.57;;
19251;SDS011;9760;50.944;5.304;2023-09-18T13:33:31;5.97;;;1.50;;
19251;SDS011;9760;50.944;5.304;2023-09-18T13:35:59;7.93;;;1.57;;
19251;SDS011;9760;50.944;5.304;2023-09-18T13:38:25;7.37;;;1.70;;
19251;SDS011;9760;50.944;5.304;2023-09-18T13:40:54;4.40;;;1.80;;
19251;SDS011;9760;50.944;5.304;2023-09-18T13:43:20;5.80;;;1.70;;
19251;SDS011;9760;50.944;5.304;2023-09-18T13:45:49;3.43;;;1.70;;
19251;SDS011;9760;50.944;5.304;2023-09-18T13:48:19;5.40;;;1.57;;
19251;SDS011;9760;50.944;5.304;2023-09-18T13:50:44;2.27;;;1.63;;
19251;SDS011;9760;50.944;5.304;2023-09-18T13:53:12;8.03;;;1.57;;
19251;SDS011;9760;50.944;5.304;2023-09-18T13:55:38;2.70;;;1.70;;
19251;SDS011;9760;50.944;5.304;2023-09-18T13:58:03;5.93;;;1.73;;
19251;SDS011;9760;50.944;5.304;2023-09-18T14:00:29;4.00;;;2.10;;
19251;SDS011;9760;50.944;5.304;2023-09-18T14:02:55;3.20;;;1.77;;
19251;SDS011;9760;50.944;5.304;2023-09-18T14:05:20;3.33;;;1.50;;
19251;SDS011;9760;50.944;5.304;2023-09-18T14:07:46;4.60;;;1.40;;
19251;SDS011;9760;50.944;5.304;2023-09-18T14:10:13;4.67;;;1.50;;
19251;SDS011;9760;50.944;5.304;2023-09-18T14:12:39;7.60;;;1.50;;
19251;SDS011;9760;50.944;5.304;2023-09-18T14:15:07;16.97;;;2.63;;
19251;SDS011;9760;50.944;5.304;2023-09-18T14:17:37;11.30;;;1.97;;
19251;SDS011;9760;50.944;5.304;2023-09-18T14:20:04;3.63;;;1.80;;
19251;SDS011;9760;50.944;5.304;2023-09-18T14:22:34;4.03;;;1.87;;
19251;SDS011;9760;50.944;5.304;2023-09-18T14:25:00;6.53;;;2.80;;
19251;SDS011;9760;50.944;5.304;2023-09-18T14:27:30;4.87;;;1.77;;
19251;SDS011;9760;50.944;5.304;2023-09-18T14:29:55;5.00;;;2.07;;
19251;SDS011;9760;50.944;5.304;2023-09-18T14:32:21;7.30;;;2.97;;
19251;SDS011;9760;50.944;5.304;2023-09-18T14:34:47;4.23;;;2.13;;
19251;SDS011;9760;50.944;5.304;2023-09-18T14:37:13;8.30;;;2.20;;
19251;SDS011;9760;50.944;5.304;2023-09-18T14:39:39;6.13;;;2.90;;
19251;SDS011;9760;50.944;5.304;2023-09-18T14:42:04;3.70;;;2.20;;
19251;SDS011;9760;50.944;5.304;2023-09-18T14:44:30;3.77;;;2.10;;
19251;SDS011;9760;50.944;5.304;2023-09-18T14:46:56;3.13;;;2.03;;
19251;SDS011;9760;50.944;5.304;2023-09-18T14:49:23;5.37;;;1.60;;
19251;SDS011;9760;50.944;5.304;2023-09-18T14:51:48;9.23;;;2.10;;
19251;SDS011;9760;50.944;5.304;2023-09-18T14:54:18;3.00;;;1.60;;
19251;SDS011;9760;50.944;5.304;2023-09-18T14:56:44;2.93;;;1.57;;
19251;SDS011;9760;50.944;5.304;2023-09-18T14:59:11;9.77;;;3.03;;
19251;SDS011;9760;50.944;5.304;2023-09-18T15:01:37;13.63;;;3.00;;
19251;SDS011;9760;50.944;5.304;2023-09-18T15:04:03;7.57;;;2.27;;
19251;SDS011;9760;50.944;5.304;2023-09-18T15:06:29;4.50;;;1.90;;
19251;SDS011;9760;50.944;5.304;2023-09-18T15:08:55;9.33;;;1.77;;
19251;SDS011;9760;50.944;5.304;2023-09-18T15:11:20;6.17;;;2.23;;